createdAt,value
2018-04-19T00:00:15.205Z,15.50
2018-04-19T00:02:42.736Z,15.60
2018-04-19T00:05:11.019Z,15.40
2018-04-19T00:07:38.578Z,15.40
2018-04-19T00:10:06.092Z,15.50
2018-04-19T00:12:33.606Z,15.40
2018-04-19T00:15:01.176Z,15.40
2018-04-19T00:17:28.701Z,15.40
2018-04-19T00:19:56.990Z,15.20
2018-04-19T00:22:24.542Z,15.10
2018-04-19T00:24:52.071Z,15.20
2018-04-19T00:27:19.597Z,15.10
2018-04-19T00:29:47.148Z,15.20
2018-04-19T00:32:14.664Z,15.10
2018-04-19T00:34:42.954Z,15.00
2018-04-19T00:37:10.523Z,15.00
2018-04-19T00:39:38.102Z,14.90
2018-04-19T00:42:05.617Z,14.90
2018-04-19T00:44:33.946Z,14.70
2018-04-19T00:47:01.493Z,14.60
2018-04-19T00:49:29.014Z,14.60
2018-04-19T00:51:57.336Z,14.30
2018-04-19T00:54:26.632Z,14.20
2018-04-19T00:56:54.238Z,14.20
2018-04-19T00:59:22.680Z,14.20
2018-04-19T01:01:50.206Z,14.20
2018-04-19T01:04:17.784Z,14.20
2018-04-19T01:06:45.353Z,14.20
2018-04-19T01:09:13.236Z,14.10
2018-04-19T01:11:40.761Z,14.20
2018-04-19T01:14:08.327Z,14.20
2018-04-19T01:16:35.855Z,14.20
2018-04-19T01:19:03.374Z,14.20
2018-04-19T01:21:30.940Z,14.20
2018-04-19T01:23:58.555Z,14.20
2018-04-19T01:26:26.078Z,14.20
2018-04-19T01:28:54.402Z,14.10
2018-04-19T01:31:21.970Z,14.00
2018-04-19T01:33:49.517Z,14.10
2018-04-19T01:36:23.772Z,14.00
2018-04-19T01:38:51.308Z,13.90
2018-04-19T01:41:18.940Z,13.80
2018-04-19T01:43:47.095Z,13.60
2018-04-19T01:46:14.653Z,13.70
2018-04-19T01:48:42.179Z,13.80
2018-04-19T01:51:09.811Z,13.80
2018-04-19T01:53:37.362Z,13.90
2018-04-19T01:56:04.879Z,13.80
2018-04-19T01:58:33.280Z,13.70
2018-04-19T02:01:00.809Z,13.70
2018-04-19T02:03:29.104Z,13.70
2018-04-19T02:05:56.687Z,13.70
2018-04-19T02:08:24.209Z,13.70
2018-04-19T02:10:51.824Z,13.70
2018-04-19T02:13:19.464Z,13.70
2018-04-19T02:15:47.000Z,13.70
2018-04-19T02:18:14.588Z,13.70
2018-04-19T02:20:42.153Z,13.40
2018-04-19T02:23:09.689Z,13.30
2018-04-19T02:25:37.205Z,13.10
2018-04-19T02:28:05.535Z,12.80
2018-04-19T02:30:33.057Z,12.70
2018-04-19T02:33:00.595Z,12.70
2018-04-19T02:35:28.935Z,12.40
2018-04-19T02:37:56.454Z,12.30
2018-04-19T02:40:23.994Z,12.40
2018-04-19T02:42:52.340Z,12.40
2018-04-19T02:45:19.970Z,12.30
2018-04-19T02:47:47.517Z,12.40
2018-04-19T02:50:15.078Z,12.40
2018-04-19T02:52:42.598Z,12.40
2018-04-19T02:55:10.877Z,12.20
2018-04-19T02:57:39.188Z,12.30
2018-04-19T03:00:06.739Z,12.20
2018-04-19T03:02:34.313Z,12.50
2018-04-19T03:05:01.863Z,12.50
2018-04-19T03:07:29.391Z,12.50
2018-04-19T03:09:57.725Z,12.40
2018-04-19T03:12:25.301Z,12.30
2018-04-19T03:14:52.836Z,12.10
2018-04-19T03:17:20.387Z,12.10
2018-04-19T03:19:47.938Z,12.00
2018-04-19T03:22:15.464Z,11.90
2018-04-19T03:24:43.772Z,11.80
2018-04-19T03:27:11.347Z,11.70
2018-04-19T03:29:38.896Z,11.70
2018-04-19T03:32:06.446Z,11.70
2018-04-19T03:34:34.029Z,11.60
2018-04-19T03:37:01.557Z,11.60
2018-04-19T03:39:29.127Z,11.60
2018-04-19T03:41:56.672Z,11.60
2018-04-19T03:44:24.209Z,11.50
2018-04-19T03:46:52.494Z,11.30
2018-04-19T03:49:20.806Z,11.30
2018-04-19T03:51:48.327Z,11.20
2018-04-19T03:54:16.647Z,11.10
2018-04-19T03:56:44.285Z,11.00
2018-04-19T03:59:11.815Z,11.10
2018-04-19T04:01:40.113Z,11.30
2018-04-19T04:04:07.700Z,11.30
2018-04-19T04:06:35.233Z,11.20
2018-04-19T04:09:02.774Z,11.10
2018-04-19T04:11:31.189Z,11.10
2018-04-19T04:13:58.716Z,11.00
2018-04-19T04:16:38.291Z,11.10
2018-04-19T04:19:17.606Z,11.10
2018-04-19T04:21:57.164Z,11.00
2018-04-19T04:24:24.708Z,11.00
2018-04-19T04:26:52.243Z,11.00
2018-04-19T04:29:20.564Z,11.00
2018-04-19T04:31:48.099Z,10.90
2018-04-19T04:34:16.139Z,11.10
2018-04-19T04:36:44.479Z,11.10
2018-04-19T04:39:12.007Z,11.00
2018-04-19T04:41:39.520Z,11.10
2018-04-19T04:44:07.085Z,11.20
2018-04-19T04:46:35.409Z,11.30
2018-04-19T04:49:02.946Z,11.30
2018-04-19T04:51:30.497Z,11.40
2018-04-19T04:53:58.090Z,11.50
2018-04-19T04:56:25.604Z,11.40
2018-04-19T04:58:54.030Z,11.50
2018-04-19T05:01:21.566Z,11.50
2018-04-19T05:03:49.112Z,11.60
2018-04-19T05:06:16.684Z,11.70
2018-04-19T05:08:44.243Z,11.80
2018-04-19T05:11:11.767Z,11.80
2018-04-19T05:13:40.096Z,11.90
2018-04-19T05:16:07.625Z,11.80
2018-04-19T05:18:35.142Z,12.20
2018-04-19T05:21:02.702Z,12.50
2018-04-19T05:23:30.229Z,12.70
2018-04-19T05:25:57.745Z,13.10
2018-04-19T05:28:26.061Z,13.50
2018-04-19T05:30:53.586Z,13.50
2018-04-19T05:33:21.183Z,13.80
2018-04-19T05:35:48.747Z,13.90
2018-04-19T05:38:16.272Z,14.00
2018-04-19T05:40:43.806Z,14.10
2018-04-19T05:43:12.143Z,14.20
2018-04-19T05:45:39.697Z,14.10
2018-04-19T05:48:07.233Z,14.30
2018-04-19T05:50:34.785Z,14.40
2018-04-19T05:53:02.977Z,14.60
2018-04-19T05:55:30.503Z,14.70
2018-04-19T05:57:58.910Z,14.80
2018-04-19T06:00:26.517Z,14.80
2018-04-19T06:02:54.059Z,14.90
2018-04-19T06:05:21.620Z,14.90
2018-04-19T06:07:50.075Z,15.10
2018-04-19T06:10:17.616Z,15.20
2018-04-19T06:12:45.182Z,15.30
2018-04-19T06:15:12.719Z,15.50
2018-04-19T06:17:40.299Z,15.60
2018-04-19T06:20:07.962Z,15.60
2018-04-19T06:22:35.481Z,15.80
2018-04-19T06:25:03.791Z,15.90
2018-04-19T06:27:31.768Z,15.90
2018-04-19T06:29:59.301Z,16.10
2018-04-19T06:32:27.044Z,16.30
2018-04-19T06:34:54.681Z,16.30
2018-04-19T06:37:22.980Z,16.50
2018-04-19T06:39:51.290Z,16.60
2018-04-19T06:42:18.866Z,16.60
2018-04-19T06:44:46.399Z,16.70
2018-04-19T06:47:13.924Z,16.80
2018-04-19T06:49:42.254Z,17.00
2018-04-19T06:52:10.085Z,16.90
2018-04-19T06:54:38.609Z,17.20
2018-04-19T06:57:06.163Z,17.20
2018-04-19T06:59:33.722Z,17.30
2018-04-19T07:02:01.311Z,17.40
2018-04-19T07:04:28.875Z,17.60
2018-04-19T07:06:56.505Z,17.60
2018-04-19T07:09:25.633Z,17.80
2018-04-19T07:11:54.065Z,18.00
2018-04-19T07:14:21.607Z,17.90
2018-04-19T07:16:49.177Z,18.10
2018-04-19T07:19:16.772Z,18.10
2018-04-19T07:21:44.304Z,18.20
2018-04-19T07:24:11.827Z,18.30
2018-04-19T07:26:40.144Z,18.50
2018-04-19T07:29:07.939Z,18.50
2018-04-19T07:31:35.481Z,18.60
2018-04-19T07:34:03.052Z,18.80
2018-04-19T07:36:30.568Z,18.90
2018-04-19T07:38:58.147Z,19.00
2018-04-19T07:41:25.805Z,19.10
2018-04-19T07:43:53.324Z,19.20
2018-04-19T07:46:20.907Z,19.30
2018-04-19T07:48:48.568Z,19.50
2018-04-19T07:51:16.085Z,19.50
2018-04-19T07:53:44.372Z,19.70
2018-04-19T07:56:12.792Z,19.90
2018-04-19T07:58:40.345Z,19.80
2018-04-19T08:01:07.861Z,20.00
2018-04-19T08:03:36.172Z,20.30
2018-04-19T08:06:03.699Z,20.20
2018-04-19T08:08:32.009Z,20.50
2018-04-19T08:10:59.563Z,20.40
2018-04-19T08:13:27.313Z,20.60
2018-04-19T08:15:54.900Z,20.70
2018-04-19T08:18:22.565Z,20.80
2018-04-19T08:20:50.111Z,20.90
2018-04-19T08:23:17.672Z,21.00
2018-04-19T08:25:45.229Z,21.10
2018-04-19T08:28:12.788Z,21.20
2018-04-19T08:30:40.327Z,21.40
2018-04-19T08:33:07.888Z,21.50
2018-04-19T08:35:35.410Z,21.60
2018-04-19T08:38:03.021Z,21.70
2018-04-19T08:40:30.582Z,21.80
2018-04-19T08:42:58.110Z,22.00
2018-04-19T08:45:26.401Z,22.20
2018-04-19T08:47:53.957Z,22.10
2018-04-19T08:50:21.504Z,22.20
2018-04-19T08:52:49.791Z,22.30
2018-04-19T08:55:17.342Z,22.20
2018-04-19T08:57:44.920Z,22.40
2018-04-19T09:00:12.491Z,22.50
2018-04-19T09:02:40.054Z,22.70
2018-04-19T09:05:07.579Z,22.80
2018-04-19T09:07:35.123Z,22.90
2018-04-19T09:10:03.456Z,23.20
2018-04-19T09:12:30.974Z,23.10
2018-04-19T09:14:58.499Z,23.20
2018-04-19T09:17:26.054Z,23.30
2018-04-19T09:19:53.585Z,23.40
2018-04-19T09:22:21.130Z,23.50
2018-04-19T09:24:48.699Z,23.70
2018-04-19T09:27:16.209Z,23.90
2018-04-19T09:29:44.485Z,24.10
2018-04-19T09:32:12.804Z,24.20
2018-04-19T09:34:40.317Z,24.20
2018-04-19T09:37:08.626Z,24.40
2018-04-19T09:39:36.231Z,24.40
2018-04-19T09:42:03.764Z,24.50
2018-04-19T09:44:31.284Z,24.70
2018-04-19T09:46:58.837Z,24.90
2018-04-19T09:49:27.132Z,25.10
2018-04-19T09:51:54.677Z,25.00
2018-04-19T09:54:22.225Z,25.10
2018-04-19T09:56:50.500Z,25.20
2018-04-19T09:59:18.793Z,25.30
2018-04-19T10:01:51.260Z,25.30
2018-04-19T10:04:24.550Z,25.40
2018-04-19T10:06:52.142Z,25.60
2018-04-19T10:09:19.678Z,25.70
2018-04-19T10:11:47.217Z,25.70
2018-04-19T10:14:15.626Z,25.90
2018-04-19T10:16:43.142Z,25.90
2018-04-19T10:19:11.446Z,26.10
2018-04-19T10:21:39.017Z,26.10
2018-04-19T10:24:06.579Z,26.30
2018-04-19T10:26:34.155Z,26.30
2018-04-19T10:29:01.721Z,26.20
2018-04-19T10:31:29.251Z,26.40
2018-04-19T10:33:56.774Z,26.60
2018-04-19T10:36:25.113Z,26.60
2018-04-19T10:38:52.636Z,26.60
2018-04-19T10:41:20.162Z,26.80
2018-04-19T10:43:48.497Z,26.90
2018-04-19T10:46:16.011Z,26.80
2018-04-19T10:48:44.323Z,27.00
2018-04-19T10:51:11.887Z,27.00
2018-04-19T10:53:39.412Z,27.10
2018-04-19T10:56:06.949Z,27.20
2018-04-19T10:58:35.270Z,27.30
2018-04-19T11:01:03.445Z,27.20
2018-04-19T11:03:30.961Z,27.30
2018-04-19T11:05:59.292Z,27.50
2018-04-19T11:08:26.887Z,27.50
2018-04-19T11:10:54.421Z,27.60
2018-04-19T11:13:21.975Z,27.60
2018-04-19T11:15:49.509Z,27.60
2018-04-19T11:18:17.078Z,27.60
2018-04-19T11:20:45.700Z,27.60
2018-04-19T11:23:13.232Z,27.70
2018-04-19T11:25:40.766Z,27.60
2018-04-19T11:28:08.423Z,27.70
2018-04-19T11:30:35.935Z,27.70
2018-04-19T11:33:03.556Z,27.90
2018-04-19T11:35:31.109Z,28.00
2018-04-19T11:37:58.687Z,27.90
2018-04-19T11:40:26.245Z,27.90
2018-04-19T11:42:53.816Z,28.00
2018-04-19T11:45:21.460Z,28.00
2018-04-19T11:47:48.987Z,28.10
2018-04-19T11:50:16.570Z,28.30
2018-04-19T11:52:44.100Z,28.40
2018-04-19T11:55:11.610Z,28.50
2018-04-19T11:57:39.172Z,28.40
2018-04-19T12:00:08.243Z,28.80
2018-04-19T12:02:35.771Z,28.70
2018-04-19T12:05:03.644Z,29.00
2018-04-19T12:07:31.240Z,29.20
2018-04-19T12:09:58.785Z,29.30
2018-04-19T12:12:26.335Z,29.40
2018-04-19T12:14:53.873Z,29.30
2018-04-19T12:17:21.382Z,29.20
2018-04-19T12:19:48.940Z,29.60
2018-04-19T12:22:16.473Z,29.70
2018-04-19T12:24:43.989Z,30.10
2018-04-19T12:27:12.310Z,31.70
2018-04-19T12:29:39.824Z,31.60
2018-04-19T12:32:08.116Z,33.20
2018-04-19T12:34:35.663Z,33.10
2018-04-19T12:37:03.937Z,34.50
2018-04-19T12:39:32.247Z,34.90
2018-04-19T12:41:59.793Z,34.80
2018-04-19T12:44:27.316Z,34.70
2018-04-19T12:46:55.646Z,34.40
2018-04-19T12:49:23.203Z,34.30
2018-04-19T12:51:50.747Z,34.90
2018-04-19T12:54:18.272Z,34.50
2018-04-19T12:56:46.588Z,35.60
2018-04-19T12:59:14.101Z,35.50
2018-04-19T13:01:42.444Z,36.40
2018-04-19T13:04:10.158Z,36.30
2018-04-19T13:06:38.456Z,35.30
2018-04-19T13:09:05.992Z,35.20
2018-04-19T13:11:33.872Z,35.60
2018-04-19T13:14:01.417Z,36.40
2018-04-19T13:16:29.029Z,36.90
2018-04-19T13:18:56.580Z,36.20
2018-04-19T13:21:24.132Z,36.40
2018-04-19T13:23:51.705Z,36.80
2018-04-19T13:26:19.260Z,36.50
2018-04-19T13:28:46.770Z,36.80
2018-04-19T13:31:14.291Z,37.10
2018-04-19T13:33:41.850Z,37.00
2018-04-19T13:36:09.379Z,37.10
2018-04-19T13:38:37.027Z,37.10
2018-04-19T13:41:04.582Z,37.20
2018-04-19T13:43:32.102Z,37.20
2018-04-19T13:46:00.384Z,37.60
2018-04-19T13:48:28.703Z,37.70
2018-04-19T13:50:56.213Z,37.60
2018-04-19T13:53:24.505Z,37.00
2018-04-19T13:55:52.909Z,36.90
2018-04-19T13:58:20.425Z,36.90
2018-04-19T14:00:48.705Z,37.30
2018-04-19T14:03:18.149Z,37.40
2018-04-19T14:05:45.655Z,37.40
2018-04-19T14:08:13.984Z,37.10
2018-04-19T14:10:41.539Z,37.00
2018-04-19T14:13:09.053Z,37.20
2018-04-19T14:15:37.333Z,37.10
2018-04-19T14:18:05.746Z,37.30
2018-04-19T14:20:33.274Z,37.20
2018-04-19T14:23:01.557Z,37.60
2018-04-19T14:25:29.986Z,37.10
2018-04-19T14:27:57.497Z,37.00
2018-04-19T14:30:25.025Z,36.80
2018-04-19T14:32:52.655Z,37.30
2018-04-19T14:35:20.187Z,37.70
2018-04-19T14:37:47.694Z,38.10
2018-04-19T14:40:15.234Z,38.30
2018-04-19T14:42:42.753Z,38.30
2018-04-19T14:45:10.335Z,38.00
2018-04-19T14:47:37.905Z,37.80
2018-04-19T14:50:05.417Z,38.10
2018-04-19T14:52:33.736Z,38.10
2018-04-19T14:55:01.286Z,38.00
2018-04-19T14:57:28.848Z,38.20
2018-04-19T14:59:56.371Z,37.90
2018-04-19T15:02:24.702Z,38.30
2018-04-19T15:04:52.230Z,38.30
2018-04-19T15:07:19.790Z,38.10
2018-04-19T15:09:47.356Z,38.50
2018-04-19T15:12:14.899Z,38.00
2018-04-19T15:14:42.413Z,37.50
2018-04-19T15:17:10.752Z,36.90
2018-04-19T15:19:38.298Z,36.90
2018-04-19T15:22:05.813Z,36.50
2018-04-19T15:24:34.131Z,37.10
2018-04-19T15:27:01.678Z,37.00
2018-04-19T15:29:29.208Z,37.60
2018-04-19T15:31:57.646Z,38.80
2018-04-19T15:34:25.199Z,38.80
2018-04-19T15:36:52.694Z,38.80
2018-04-19T15:39:20.299Z,39.10
2018-04-19T15:41:47.869Z,39.10
2018-04-19T15:44:15.432Z,38.90
2018-04-19T15:46:42.970Z,39.20
2018-04-19T15:49:10.499Z,38.80
2018-04-19T15:51:38.813Z,38.70
2018-04-19T15:54:06.398Z,38.60
2018-04-19T15:56:33.927Z,38.00
2018-04-19T15:59:01.494Z,38.10
2018-04-19T16:01:29.043Z,38.40
2018-04-19T16:03:56.554Z,38.00
2018-04-19T16:06:24.048Z,38.00
2018-04-19T16:08:51.605Z,37.70
2018-04-19T16:11:19.176Z,38.20
2018-04-19T16:13:47.898Z,38.40
2018-04-19T16:16:15.475Z,38.40
2018-04-19T16:18:42.989Z,38.00
2018-04-19T16:21:10.517Z,37.70
2018-04-19T16:23:38.836Z,36.70
2018-04-19T16:26:06.355Z,36.60
2018-04-19T16:28:33.882Z,36.20
2018-04-19T16:31:01.617Z,35.90
2018-04-19T16:33:29.202Z,35.10
2018-04-19T16:35:56.673Z,34.60
2018-04-19T16:38:24.996Z,34.00
2018-04-19T16:40:52.549Z,34.00
2018-04-19T16:43:20.109Z,33.70
2018-04-19T16:45:47.675Z,33.60
2018-04-19T16:48:15.230Z,33.50
2018-04-19T16:50:42.742Z,33.80
2018-04-19T16:53:11.116Z,34.20
2018-04-19T16:55:38.735Z,34.10
2018-04-19T16:58:06.992Z,34.40
2018-04-19T17:00:34.660Z,34.80
2018-04-19T17:03:02.191Z,35.30
2018-04-19T17:05:30.474Z,35.90
2018-04-19T17:07:58.361Z,35.80
2018-04-19T17:10:25.894Z,35.80
2018-04-19T17:12:53.486Z,35.60
2018-04-19T17:15:21.131Z,35.30
2018-04-19T17:17:48.666Z,35.10
2018-04-19T17:20:16.970Z,35.00
2018-04-19T17:22:44.550Z,34.90
2018-04-19T17:25:12.079Z,34.50
2018-04-19T17:27:39.615Z,34.50
2018-04-19T17:30:07.943Z,34.30
2018-04-19T17:32:35.457Z,34.20
2018-04-19T17:35:03.764Z,33.70
2018-04-19T17:37:31.306Z,33.60
2018-04-19T17:39:58.978Z,33.70
2018-04-19T17:42:26.497Z,33.80
2018-04-19T17:44:54.813Z,33.40
2018-04-19T17:47:22.377Z,33.30
2018-04-19T17:49:49.903Z,32.80
2018-04-19T17:52:18.221Z,32.40
2018-04-19T17:54:45.741Z,32.30
2018-04-19T17:57:14.027Z,32.00
2018-04-19T17:59:41.868Z,31.90
2018-04-19T18:02:10.150Z,31.90
2018-04-19T18:04:38.488Z,31.60
2018-04-19T18:07:06.057Z,31.60
2018-04-19T18:09:33.580Z,31.00
2018-04-19T18:12:01.312Z,30.50
2018-04-19T18:14:28.879Z,30.30
2018-04-19T18:16:56.524Z,29.80
2018-04-19T18:19:25.959Z,29.20
2018-04-19T18:21:53.524Z,28.60
2018-04-19T18:24:21.069Z,28.10
2018-04-19T18:26:48.659Z,27.50
2018-04-19T18:29:16.311Z,26.90
2018-04-19T18:31:43.882Z,26.40
2018-04-19T18:34:11.436Z,26.00
2018-04-19T18:36:39.000Z,25.60
2018-04-19T18:39:06.524Z,25.30
2018-04-19T18:41:34.049Z,25.00
2018-04-19T18:44:02.369Z,24.50
2018-04-19T18:46:29.922Z,24.40
2018-04-19T18:48:57.436Z,24.30
2018-04-19T18:51:24.985Z,24.00
2018-04-19T18:53:52.505Z,23.80
2018-04-19T18:56:20.041Z,23.50
2018-04-19T18:58:47.629Z,23.30
2018-04-19T19:01:15.190Z,23.10
2018-04-19T19:03:42.724Z,23.10
2018-04-19T19:06:10.274Z,23.00
2018-04-19T19:08:37.787Z,22.80
2018-04-19T19:11:05.332Z,22.60
2018-04-19T19:13:32.878Z,22.60
2018-04-19T19:16:15.248Z,22.60
2018-04-19T19:18:55.537Z,22.50
2018-04-19T19:21:23.100Z,22.30
2018-04-19T19:23:59.391Z,22.40
2018-04-19T19:26:26.941Z,22.30
2018-04-19T19:28:54.588Z,22.30
2018-04-19T19:31:22.130Z,22.30
2018-04-19T19:33:50.652Z,22.10
2018-04-19T19:36:18.289Z,22.00
2018-04-19T19:38:45.805Z,21.80
2018-04-19T19:41:14.619Z,21.60
2018-04-19T19:43:42.190Z,21.50
2018-04-19T19:46:09.713Z,21.60
2018-04-19T19:48:37.286Z,21.50
2018-04-19T19:51:04.840Z,21.30
2018-04-19T19:53:32.516Z,21.40
2018-04-19T19:56:00.070Z,21.30
2018-04-19T19:58:27.636Z,21.30
2018-04-19T20:00:55.173Z,21.20
2018-04-19T20:03:22.764Z,21.10
2018-04-19T20:05:50.397Z,21.00
2018-04-19T20:08:19.431Z,20.90
2018-04-19T20:10:46.948Z,20.90
2018-04-19T20:13:14.486Z,20.90
2018-04-19T20:15:43.152Z,20.70
2018-04-19T20:18:10.773Z,20.60
2018-04-19T20:20:38.436Z,20.60
2018-04-19T20:23:05.956Z,20.50
2018-04-19T20:25:33.485Z,20.50
2018-04-19T20:28:01.809Z,20.30
2018-04-19T20:30:29.346Z,20.30
2018-04-19T20:32:57.639Z,19.90
2018-04-19T20:35:25.214Z,19.80
2018-04-19T20:37:52.743Z,19.80
2018-04-19T20:40:21.047Z,19.70
2018-04-19T20:42:48.607Z,19.60
2018-04-19T20:45:16.165Z,19.70
2018-04-19T20:47:43.699Z,19.70
2018-04-19T20:50:11.297Z,19.70
2018-04-19T20:52:38.858Z,19.70
2018-04-19T20:55:06.426Z,19.70
2018-04-19T20:57:33.997Z,19.70
2018-04-19T21:00:01.645Z,19.60
2018-04-19T21:02:29.716Z,19.60
2018-04-19T21:04:57.269Z,19.60
2018-04-19T21:07:24.828Z,19.50
2018-04-19T21:09:52.368Z,19.50
2018-04-19T21:12:19.909Z,19.50
2018-04-19T21:14:47.488Z,19.50
2018-04-19T21:17:15.009Z,19.40
2018-04-19T21:19:43.338Z,19.40
2018-04-19T21:22:10.864Z,19.30
2018-04-19T21:24:38.425Z,19.30
2018-04-19T21:27:05.984Z,19.20
2018-04-19T21:29:33.520Z,19.30
2018-04-19T21:32:01.058Z,19.20
2018-04-19T21:34:28.685Z,19.30
2018-04-19T21:36:56.212Z,19.30
2018-04-19T21:39:23.755Z,19.40
2018-04-19T21:41:52.072Z,19.40
2018-04-19T21:44:19.603Z,19.30
2018-04-19T21:46:47.145Z,19.40
2018-04-19T21:49:15.455Z,19.40
2018-04-19T21:51:42.991Z,19.40
2018-04-19T21:54:11.280Z,19.40
2018-04-19T21:56:38.825Z,19.30
2018-04-19T21:59:07.114Z,19.40
2018-04-19T22:01:34.648Z,19.30
2018-04-19T22:04:02.971Z,19.40
2018-04-19T22:06:30.541Z,19.30
2018-04-19T22:08:58.067Z,19.30
2018-04-19T22:11:25.642Z,19.30
2018-04-19T22:13:53.156Z,19.30
2018-04-19T22:16:21.471Z,19.20
2018-04-19T22:18:49.322Z,19.20
2018-04-19T22:21:16.861Z,19.20
2018-04-19T22:23:45.162Z,19.30
2018-04-19T22:26:12.720Z,19.20
2018-04-19T22:28:40.247Z,19.30
2018-04-19T22:31:08.589Z,19.20
2018-04-19T22:33:36.144Z,19.20
2018-04-19T22:36:03.689Z,19.20
2018-04-19T22:38:31.214Z,19.10
2018-04-19T22:40:59.528Z,19.20
2018-04-19T22:43:27.044Z,19.10
2018-04-19T22:45:55.375Z,19.30
2018-04-19T22:48:22.916Z,19.20
2018-04-19T22:50:50.443Z,19.10
2018-04-19T22:53:17.977Z,19.10
2018-04-19T22:55:45.612Z,19.10
2018-04-19T22:58:13.150Z,19.20
2018-04-19T23:00:40.671Z,19.10
2018-04-19T23:03:08.985Z,19.00
2018-04-19T23:05:36.515Z,19.00
2018-04-19T23:08:04.022Z,19.00
2018-04-19T23:10:31.568Z,19.00
2018-04-19T23:12:59.094Z,18.90
2018-04-19T23:15:26.609Z,18.80
2018-04-19T23:17:54.168Z,18.80
2018-04-19T23:20:21.697Z,18.80
2018-04-19T23:22:49.227Z,18.70
2018-04-19T23:25:16.815Z,18.70
2018-04-19T23:27:44.358Z,18.70
2018-04-19T23:30:11.883Z,18.70
2018-04-19T23:32:40.198Z,18.50
2018-04-19T23:35:07.753Z,18.50
2018-04-19T23:37:35.262Z,18.40
2018-04-19T23:40:03.694Z,18.30
2018-04-19T23:42:31.219Z,18.20
2018-04-19T23:44:59.536Z,18.20
2018-04-19T23:47:27.099Z,18.10
2018-04-19T23:49:54.742Z,18.20
2018-04-19T23:52:22.261Z,18.20
2018-04-19T23:54:50.587Z,18.20
2018-04-19T23:57:18.109Z,18.10
2018-04-19T23:59:46.433Z,18.00
